KNYL

Yuma MCAS / Yuma International Airport

Yuma, Arizona, USA
METAR KNYL 171757Z 02011KT 7SM CLR 23/06 A3007 RMK AO2 SLP181 T02330061 10233 20150 58002
Observed Flight Rules
Oct-17 @ 17:57 UTC (22 minutes ago) Visual Flight Rules
Wind Visibility Clouds
20° at 11 knots 7 miles
  • Clear skies
Temperatures Readings
Current 23°C / 73°F
Dewpoint 6°C / 43°F
Humidity 33%
Altimeter 30.07" Hg
Pressure 1018.1 hPa
Elevation 65
METAR KNYL 171757Z 02011KT 7SM CLR 23/06 A3007 RMK AO2 SLP181 T02330061 10233 20150 58002
Observed Flight Rules
Oct-17 @ 17:57 UTC
(22 minutes ago)
VFR
Wind Visibility
20° at 11 knots 7 miles
Clouds
  • Clear skies
Temperature Dewpoint
23°C / 73°F 6°C / 43°F
Humidity Altimeter Pressure
33% 30.07" Hg 1018.1 hPa